createdAt,value
2023-01-19T00:01:14.434Z,21.17
2023-01-19T00:03:42.769Z,24.15
2023-01-19T00:06:11.259Z,18.55
2023-01-19T00:08:40.341Z,21.55
2023-01-19T00:11:09.150Z,15.90
2023-01-19T00:13:38.173Z,20.90
2023-01-19T00:16:07.836Z,18.17
2023-01-19T00:18:37.491Z,19.90
2023-01-19T00:21:06.071Z,20.33
2023-01-19T00:23:34.455Z,18.38
2023-01-19T00:26:02.680Z,20.27
2023-01-19T00:28:31.295Z,19.85
2023-01-19T00:30:59.604Z,21.77
2023-01-19T00:33:28.176Z,17.52
2023-01-19T00:35:57.815Z,19.50
2023-01-19T00:38:26.131Z,18.95
2023-01-19T00:40:54.371Z,25.42
2023-01-19T00:43:23.185Z,21.27
2023-01-19T00:45:51.883Z,18.20
2023-01-19T00:48:20.294Z,15.18
2023-01-19T00:50:50.152Z,16.95
2023-01-19T00:53:20.122Z,15.32
2023-01-19T00:55:48.399Z,14.52
2023-01-19T00:58:18.072Z,19.17
2023-01-19T01:00:46.581Z,20.20
2023-01-19T01:03:15.152Z,17.50
2023-01-19T01:05:43.697Z,25.00
2023-01-19T01:08:12.094Z,20.88
2023-01-19T01:10:42.046Z,22.08
2023-01-19T01:13:21.574Z,16.60
2023-01-19T01:15:52.501Z,19.30
2023-01-19T01:18:21.755Z,19.40
2023-01-19T01:20:50.579Z,16.55
2023-01-19T01:23:23.023Z,18.30
2023-01-19T01:25:53.033Z,25.27
2023-01-19T01:28:21.666Z,22.67
2023-01-19T01:30:53.920Z,16.52
2023-01-19T01:33:40.821Z,19.48
2023-01-19T01:36:11.541Z,17.73
2023-01-19T01:38:40.105Z,15.82
2023-01-19T01:41:10.069Z,19.77
2023-01-19T01:43:47.818Z,19.10
2023-01-19T01:46:17.462Z,22.00
2023-01-19T01:48:53.278Z,20.45
2023-01-19T01:51:27.455Z,18.52
2023-01-19T01:54:14.254Z,21.70
2023-01-19T01:56:46.368Z,21.85
2023-01-19T01:59:26.291Z,20.75
2023-01-19T02:02:14.823Z,21.23
2023-01-19T02:04:51.513Z,21.70
2023-01-19T02:07:45.324Z,20.50
2023-01-19T02:10:30.944Z,25.48
2023-01-19T02:13:18.799Z,20.80
2023-01-19T02:15:47.594Z,23.27
2023-01-19T02:18:16.240Z,24.67
2023-01-19T02:20:53.633Z,21.02
2023-01-19T02:23:39.171Z,22.70
2023-01-19T02:26:10.509Z,23.05
2023-01-19T02:28:43.208Z,19.70
2023-01-19T02:33:40.403Z,20.35
2023-01-19T02:36:11.824Z,19.42
2023-01-19T02:38:43.145Z,22.17
2023-01-19T02:41:24.015Z,19.00
2023-01-19T02:43:53.738Z,25.05
2023-01-19T02:46:22.680Z,19.00
2023-01-19T02:48:51.288Z,19.08
2023-01-19T02:51:24.244Z,21.20
2023-01-19T02:54:14.691Z,18.38
2023-01-19T02:56:57.036Z,14.15
2023-01-19T02:59:41.541Z,17.52
2023-01-19T03:02:33.418Z,19.17
2023-01-19T03:05:21.992Z,18.15
2023-01-19T03:08:03.990Z,19.50
2023-01-19T03:10:46.419Z,21.70
2023-01-19T03:13:23.138Z,20.92
2023-01-19T03:15:56.299Z,20.85
2023-01-19T03:18:29.296Z,22.10
2023-01-19T03:21:02.690Z,26.73
2023-01-19T03:23:35.835Z,21.13
2023-01-19T03:26:09.770Z,21.45
2023-01-19T03:28:41.352Z,23.48
2023-01-19T03:31:17.937Z,21.63
2023-01-19T03:33:52.598Z,21.80
2023-01-19T03:36:27.435Z,21.88
2023-01-19T03:38:59.240Z,19.73
2023-01-19T03:41:30.951Z,19.20
2023-01-19T03:44:00.160Z,17.80
2023-01-19T03:46:29.548Z,20.45
2023-01-19T03:48:59.470Z,18.90
2023-01-19T03:51:28.555Z,17.88
2023-01-19T03:53:56.814Z,21.58
2023-01-19T03:56:28.383Z,20.52
2023-01-19T03:58:57.115Z,25.40
2023-01-19T04:01:25.968Z,19.63
2023-01-19T04:03:55.389Z,22.25
2023-01-19T04:06:23.997Z,19.02
2023-01-19T04:08:53.115Z,20.85
2023-01-19T04:11:21.628Z,22.98
2023-01-19T04:13:51.672Z,21.27
2023-01-19T04:16:21.323Z,25.65
2023-01-19T04:18:52.725Z,23.17
2023-01-19T04:21:21.276Z,26.23
2023-01-19T04:23:50.957Z,24.83
2023-01-19T04:26:19.276Z,26.02
2023-01-19T04:28:47.506Z,23.80
2023-01-19T04:31:19.310Z,27.92
2023-01-19T04:33:47.787Z,26.63
2023-01-19T04:36:16.534Z,23.35
2023-01-19T04:38:46.504Z,24.92
2023-01-19T04:41:14.962Z,21.98
2023-01-19T04:43:43.369Z,27.40
2023-01-19T04:46:12.094Z,26.42
2023-01-19T04:48:42.339Z,24.92
2023-01-19T04:51:10.708Z,22.98
2023-01-19T04:53:39.226Z,26.77
2023-01-19T04:56:07.824Z,25.25
2023-01-19T04:58:36.691Z,27.70
2023-01-19T05:01:09.887Z,22.20
2023-01-19T05:03:38.243Z,23.15
2023-01-19T05:06:08.795Z,24.20
2023-01-19T05:08:37.674Z,24.05
2023-01-19T05:11:06.382Z,25.90
2023-01-19T05:13:35.565Z,26.65
2023-01-19T05:16:04.336Z,24.17
2023-01-19T05:18:36.380Z,23.88
2023-01-19T05:21:12.815Z,27.33
2023-01-19T05:23:41.144Z,22.33
2023-01-19T05:26:10.295Z,25.23
2023-01-19T05:28:39.159Z,26.38
2023-01-19T05:31:08.031Z,29.25
2023-01-19T05:33:36.903Z,31.30
2023-01-19T05:36:05.848Z,35.28
2023-01-19T05:38:36.254Z,25.58
2023-01-19T05:41:05.083Z,31.48
2023-01-19T05:43:34.079Z,29.90
2023-01-19T05:46:04.303Z,28.55
2023-01-19T05:48:32.911Z,30.00
2023-01-19T05:51:02.235Z,33.92
2023-01-19T05:53:30.575Z,34.80
2023-01-19T05:56:13.112Z,42.28
2023-01-19T05:58:41.400Z,42.92
2023-01-19T06:01:12.267Z,43.58
2023-01-19T06:03:40.959Z,48.72
2023-01-19T06:06:09.574Z,42.45
2023-01-19T06:08:37.786Z,46.15
2023-01-19T06:11:08.965Z,55.20
2023-01-19T06:13:37.423Z,47.30
2023-01-19T06:16:06.503Z,51.80
2023-01-19T06:18:35.312Z,49.35
2023-01-19T06:21:09.316Z,46.03
2023-01-19T06:23:38.391Z,49.33
2023-01-19T06:26:08.716Z,47.30
2023-01-19T06:28:37.218Z,48.05
2023-01-19T06:31:06.026Z,46.80
2023-01-19T06:33:34.433Z,54.20
2023-01-19T06:36:02.694Z,47.53
2023-01-19T06:38:30.983Z,49.67
2023-01-19T06:41:00.306Z,53.03
2023-01-19T06:43:31.363Z,58.58
2023-01-19T06:46:01.144Z,57.33
2023-01-19T06:48:29.858Z,56.92
2023-01-19T06:50:59.735Z,60.95
2023-01-19T06:53:30.157Z,55.97
2023-01-19T06:56:03.117Z,61.53
2023-01-19T06:58:34.938Z,53.38
2023-01-19T07:01:04.604Z,73.57
2023-01-19T07:03:34.287Z,69.18
2023-01-19T07:06:03.640Z,65.90
2023-01-19T07:08:31.896Z,70.10
2023-01-19T07:11:25.419Z,72.85
2023-01-19T07:13:56.009Z,87.70
2023-01-19T07:16:25.424Z,73.45
2023-01-19T07:18:54.291Z,78.18
2023-01-19T07:21:23.287Z,77.25
2023-01-19T07:23:52.651Z,80.88
2023-01-19T07:26:22.156Z,80.90
2023-01-19T07:28:52.250Z,62.45
2023-01-19T07:31:21.517Z,78.47
2023-01-19T07:33:50.164Z,69.32
2023-01-19T07:36:18.714Z,59.90
2023-01-19T07:38:47.207Z,68.20
2023-01-19T07:41:15.422Z,79.45
2023-01-19T07:43:43.824Z,64.75
2023-01-19T07:46:13.628Z,72.35
2023-01-19T07:48:44.300Z,72.75
2023-01-19T07:51:17.857Z,79.65
2023-01-19T07:53:46.744Z,76.85
2023-01-19T07:56:15.347Z,75.38
2023-01-19T07:58:43.725Z,87.05
2023-01-19T08:01:14.601Z,85.45
2023-01-19T08:03:42.936Z,76.07
2023-01-19T08:06:17.923Z,76.50
2023-01-19T08:08:46.163Z,71.43
2023-01-19T08:11:15.190Z,77.10
2023-01-19T08:13:44.486Z,74.25
2023-01-19T08:16:14.742Z,72.35
2023-01-19T08:18:43.159Z,71.97
2023-01-19T08:21:11.596Z,69.28
2023-01-19T08:23:40.299Z,62.55
2023-01-19T08:26:20.151Z,71.90
2023-01-19T08:28:48.650Z,58.85
2023-01-19T08:31:21.155Z,59.63
2023-01-19T08:33:51.608Z,59.88
2023-01-19T08:36:20.251Z,56.60
2023-01-19T08:38:49.585Z,58.08
2023-01-19T08:41:18.228Z,57.50
2023-01-19T08:43:46.918Z,63.15
2023-01-19T08:46:17.643Z,60.00
2023-01-19T08:48:48.202Z,63.28
2023-01-19T08:51:16.772Z,60.42
2023-01-19T08:53:45.454Z,64.43
2023-01-19T08:56:14.842Z,62.00
2023-01-19T08:58:44.308Z,61.85
2023-01-19T09:01:16.752Z,63.50
2023-01-19T09:03:46.821Z,67.20
2023-01-19T09:06:19.223Z,60.50
2023-01-19T09:08:48.255Z,62.85
2023-01-19T09:11:18.718Z,63.00
2023-01-19T09:13:47.649Z,58.65
2023-01-19T09:16:16.312Z,58.00
2023-01-19T09:18:46.295Z,59.67
2023-01-19T09:21:15.077Z,58.22
2023-01-19T09:23:43.342Z,61.47
2023-01-19T09:26:12.064Z,61.45
2023-01-19T09:28:40.297Z,62.63
2023-01-19T09:31:10.758Z,61.28
2023-01-19T09:33:39.388Z,64.22
2023-01-19T09:36:10.712Z,78.72
2023-01-19T09:38:38.930Z,64.38
2023-01-19T09:41:20.115Z,58.33
2023-01-19T09:43:54.020Z,56.22
2023-01-19T09:46:31.146Z,65.53
2023-01-19T09:49:04.902Z,66.78
2023-01-19T09:51:40.421Z,55.17
2023-01-19T09:54:15.702Z,58.53
2023-01-19T09:56:45.206Z,50.58
2023-01-19T09:59:25.190Z,60.13
2023-01-19T10:02:08.282Z,58.40
2023-01-19T10:04:42.324Z,46.92
2023-01-19T10:07:19.661Z,59.17
2023-01-19T10:10:06.929Z,58.22
2023-01-19T10:12:51.072Z,56.22
2023-01-19T10:15:38.919Z,66.50
2023-01-19T10:18:17.892Z,58.75
2023-01-19T10:20:51.975Z,51.42
2023-01-19T10:23:44.107Z,59.88
2023-01-19T10:26:18.838Z,44.67
2023-01-19T10:28:50.041Z,56.42
2023-01-19T10:31:22.616Z,60.22
2023-01-19T10:36:23.967Z,54.05
2023-01-19T10:38:53.859Z,57.22
2023-01-19T10:41:29.885Z,51.22
2023-01-19T10:44:04.463Z,53.88
2023-01-19T10:46:41.516Z,54.50
2023-01-19T10:49:27.219Z,51.38
2023-01-19T10:51:57.680Z,55.67
2023-01-19T10:54:29.004Z,64.70
2023-01-19T10:56:59.999Z,48.45
2023-01-19T10:59:36.134Z,50.67
2023-01-19T11:02:17.351Z,52.75
2023-01-19T11:04:49.812Z,53.78
2023-01-19T11:07:22.977Z,51.78
2023-01-19T11:10:21.936Z,60.38
2023-01-19T11:13:03.402Z,61.65
2023-01-19T11:15:36.098Z,50.28
2023-01-19T11:18:06.634Z,61.63
2023-01-19T11:20:49.060Z,55.20
2023-01-19T11:23:27.205Z,53.50
2023-01-19T11:26:01.494Z,61.15
2023-01-19T11:28:35.099Z,56.28
2023-01-19T11:31:17.349Z,58.92
2023-01-19T11:33:52.991Z,52.50
2023-01-19T11:36:24.269Z,62.35
2023-01-19T11:38:55.110Z,55.78
2023-01-19T11:41:29.916Z,61.03
2023-01-19T11:44:03.869Z,47.97
2023-01-19T11:46:36.248Z,53.42
2023-01-19T11:49:09.401Z,53.90
2023-01-19T11:51:50.231Z,57.03
2023-01-19T11:54:24.006Z,55.05
2023-01-19T11:56:55.867Z,54.22
2023-01-19T11:59:25.246Z,60.38
2023-01-19T12:01:57.973Z,57.17
2023-01-19T12:04:31.463Z,46.35
2023-01-19T12:07:06.902Z,50.30
2023-01-19T12:09:42.570Z,52.22
2023-01-19T12:12:25.550Z,45.30
2023-01-19T12:15:00.225Z,45.60
2023-01-19T12:17:32.335Z,39.85
2023-01-19T12:20:14.892Z,46.78
2023-01-19T12:22:50.917Z,49.35
2023-01-19T12:25:26.194Z,47.25
2023-01-19T12:27:56.989Z,43.38
2023-01-19T12:30:28.077Z,42.60
2023-01-19T12:33:37.690Z,45.30
2023-01-19T12:36:14.295Z,41.75
2023-01-19T12:38:50.524Z,45.50
2023-01-19T12:41:27.124Z,44.17
2023-01-19T12:44:30.611Z,42.70
2023-01-19T12:47:04.199Z,41.03
2023-01-19T12:49:43.723Z,30.35
2023-01-19T12:52:30.604Z,34.97
2023-01-19T12:55:16.645Z,33.58
2023-01-19T12:57:55.041Z,37.25
2023-01-19T13:00:44.350Z,31.38
2023-01-19T13:03:46.746Z,34.65
2023-01-19T13:06:15.353Z,34.80
2023-01-19T13:09:01.849Z,33.03
2023-01-19T13:11:34.335Z,33.70
2023-01-19T13:14:37.797Z,28.77
2023-01-19T13:17:34.514Z,30.63
2023-01-19T13:20:28.427Z,32.13
2023-01-19T13:23:24.267Z,28.63
2023-01-19T13:26:04.936Z,26.40
2023-01-19T13:28:43.419Z,30.08
2023-01-19T13:31:13.797Z,28.05
2023-01-19T13:33:58.384Z,28.85
2023-01-19T13:36:32.404Z,32.35
2023-01-19T13:39:04.865Z,27.95
2023-01-19T13:41:38.899Z,25.95
2023-01-19T13:44:15.359Z,26.48
2023-01-19T13:46:44.235Z,25.42
2023-01-19T13:49:22.323Z,25.45
2023-01-19T13:52:06.833Z,28.20
2023-01-19T13:54:35.255Z,29.23
2023-01-19T13:57:03.528Z,25.45
2023-01-19T13:59:32.262Z,26.15
2023-01-19T14:02:13.589Z,23.55
2023-01-19T14:04:43.792Z,28.08
2023-01-19T14:07:26.163Z,30.20
2023-01-19T14:10:06.152Z,23.00
2023-01-19T14:12:37.602Z,24.20
2023-01-19T14:15:14.281Z,26.63
2023-01-19T14:17:43.353Z,20.10
2023-01-19T14:20:36.672Z,24.38
2023-01-19T14:23:06.066Z,26.13
2023-01-19T14:25:36.358Z,28.80
2023-01-19T14:28:30.861Z,27.65
2023-01-19T14:31:01.656Z,29.13
2023-01-19T14:33:41.258Z,31.35
2023-01-19T14:36:23.458Z,29.05
2023-01-19T14:38:54.291Z,26.05
2023-01-19T14:41:31.734Z,24.52
2023-01-19T14:44:01.606Z,26.02
2023-01-19T14:46:30.503Z,24.10
2023-01-19T14:49:05.425Z,29.73
2023-01-19T14:51:35.677Z,23.02
2023-01-19T14:54:04.942Z,27.52
2023-01-19T14:56:35.727Z,24.42
2023-01-19T14:59:10.740Z,23.77
2023-01-19T15:01:39.478Z,27.00
2023-01-19T15:04:07.981Z,25.58
2023-01-19T15:06:43.315Z,24.13
2023-01-19T15:09:13.719Z,21.45
2023-01-19T15:11:43.033Z,26.08
2023-01-19T15:14:15.026Z,24.15
2023-01-19T15:16:44.100Z,20.00
2023-01-19T15:19:14.744Z,21.00
2023-01-19T15:21:46.813Z,19.33
2023-01-19T15:24:17.804Z,25.33
2023-01-19T15:26:46.939Z,19.80
2023-01-19T15:29:24.327Z,21.85
2023-01-19T15:31:53.581Z,20.20
2023-01-19T15:34:21.950Z,29.60
2023-01-19T15:36:51.709Z,18.05
2023-01-19T15:39:20.646Z,22.05
2023-01-19T15:41:49.114Z,18.30
2023-01-19T15:44:17.361Z,37.08
2023-01-19T15:46:45.930Z,28.08
2023-01-19T15:49:14.494Z,23.85
2023-01-19T15:51:43.330Z,23.52
2023-01-19T15:54:15.581Z,26.33
2023-01-19T15:56:44.165Z,29.10
2023-01-19T15:59:12.562Z,22.95
2023-01-19T16:01:41.937Z,21.55
2023-01-19T16:04:12.348Z,20.17
2023-01-19T16:06:40.623Z,24.90
2023-01-19T16:09:09.041Z,21.45
2023-01-19T16:11:38.832Z,17.30
2023-01-19T16:14:07.233Z,23.67
2023-01-19T16:16:35.628Z,25.88
2023-01-19T16:19:03.911Z,22.77
2023-01-19T16:21:32.415Z,19.02
2023-01-19T16:24:00.907Z,23.98
2023-01-19T16:26:34.455Z,25.65
2023-01-19T16:29:08.652Z,17.05
2023-01-19T16:31:37.437Z,18.27
2023-01-19T16:34:06.230Z,20.23
2023-01-19T16:36:36.808Z,18.42
2023-01-19T16:39:08.521Z,18.95
2023-01-19T16:41:37.723Z,15.60
2023-01-19T16:44:08.680Z,16.17
2023-01-19T16:46:40.526Z,18.05
2023-01-19T16:49:15.398Z,15.37
2023-01-19T16:51:44.748Z,16.42
2023-01-19T16:54:14.978Z,16.35
2023-01-19T16:56:43.803Z,20.52
2023-01-19T16:59:16.401Z,13.45
2023-01-19T17:01:45.900Z,15.60
2023-01-19T17:04:14.870Z,18.70
2023-01-19T17:06:43.291Z,15.38
2023-01-19T17:09:12.230Z,16.13
2023-01-19T17:11:41.484Z,16.25
2023-01-19T17:14:14.955Z,16.40
2023-01-19T17:16:44.737Z,22.75
2023-01-19T17:19:17.547Z,16.38
2023-01-19T17:21:48.566Z,18.50
2023-01-19T17:24:17.786Z,17.42
2023-01-19T17:26:48.568Z,21.33
2023-01-19T17:29:19.022Z,20.23
2023-01-19T17:31:47.604Z,22.00
2023-01-19T17:34:16.279Z,20.63
2023-01-19T17:36:44.743Z,19.15
2023-01-19T17:39:15.131Z,19.73
2023-01-19T17:41:43.766Z,17.98
2023-01-19T17:44:12.725Z,16.95
2023-01-19T17:46:42.615Z,18.42
2023-01-19T17:49:11.715Z,17.13
2023-01-19T17:51:39.958Z,21.38
2023-01-19T17:54:08.559Z,18.27
2023-01-19T17:56:38.571Z,12.95
2023-01-19T17:59:08.122Z,16.38
2023-01-19T18:01:40.353Z,19.48
2023-01-19T18:04:10.925Z,17.55
2023-01-19T18:06:40.069Z,14.50
2023-01-19T18:09:08.770Z,18.50
2023-01-19T18:11:37.150Z,19.52
2023-01-19T18:14:06.670Z,20.27
2023-01-19T18:16:36.044Z,29.38
2023-01-19T18:19:04.999Z,70.40
2023-01-19T18:21:34.620Z,52.42
2023-01-19T18:24:06.914Z,36.13
2023-01-19T18:26:37.533Z,18.88
2023-01-19T18:29:05.935Z,16.98
2023-01-19T18:31:34.606Z,14.60
2023-01-19T18:34:02.955Z,17.50
2023-01-19T18:36:34.127Z,21.52
2023-01-19T18:39:05.041Z,14.63
2023-01-19T18:41:35.449Z,18.90
2023-01-19T18:44:03.749Z,20.88
2023-01-19T18:46:32.245Z,19.98
2023-01-19T18:49:00.504Z,21.67
2023-01-19T18:51:29.114Z,24.52
2023-01-19T18:53:58.403Z,24.30
2023-01-19T18:56:28.667Z,19.50
2023-01-19T18:58:57.282Z,19.98
2023-01-19T19:01:31.504Z,19.95
2023-01-19T19:04:01.340Z,22.73
2023-01-19T19:06:29.819Z,20.77
2023-01-19T19:08:59.539Z,23.80
2023-01-19T19:11:29.724Z,19.52
2023-01-19T19:14:01.525Z,17.05
2023-01-19T19:16:32.768Z,18.03
2023-01-19T19:19:03.230Z,18.58
2023-01-19T19:21:31.502Z,16.50
2023-01-19T19:24:00.220Z,18.42
2023-01-19T19:26:31.217Z,17.60
2023-01-19T19:28:59.477Z,17.85
2023-01-19T19:31:30.181Z,19.08
2023-01-19T19:34:00.375Z,23.90
2023-01-19T19:36:30.071Z,19.30
2023-01-19T19:39:00.236Z,20.77
2023-01-19T19:41:32.152Z,16.10
2023-01-19T19:44:01.247Z,18.38
2023-01-19T19:46:29.694Z,16.65
2023-01-19T19:48:58.256Z,18.35
2023-01-19T19:51:29.121Z,19.23
2023-01-19T19:54:00.729Z,16.73
2023-01-19T19:56:33.964Z,22.90
2023-01-19T19:59:02.429Z,19.23
2023-01-19T20:01:33.501Z,18.95
2023-01-19T20:04:08.021Z,22.88
2023-01-19T20:06:38.860Z,22.80
2023-01-19T20:09:09.012Z,22.45
2023-01-19T20:11:38.795Z,20.15
2023-01-19T20:14:08.183Z,28.08
2023-01-19T20:16:37.487Z,24.98
2023-01-19T20:19:06.800Z,25.35
2023-01-19T20:21:37.544Z,28.88
2023-01-19T20:24:10.556Z,24.65
2023-01-19T20:26:44.395Z,25.02
2023-01-19T20:29:13.037Z,24.65
2023-01-19T20:31:45.418Z,24.25
2023-01-19T20:34:16.895Z,23.38
2023-01-19T20:36:49.556Z,27.98
2023-01-19T20:39:19.071Z,24.20
2023-01-19T20:41:51.206Z,27.17
2023-01-19T20:44:23.397Z,24.00
2023-01-19T20:46:52.954Z,21.30
2023-01-19T20:49:22.106Z,21.77
2023-01-19T20:51:52.347Z,23.10
2023-01-19T20:54:24.554Z,22.13
2023-01-19T20:56:57.512Z,20.80
2023-01-19T20:59:25.996Z,19.35
2023-01-19T21:01:54.469Z,22.40
2023-01-19T21:04:23.550Z,21.45
2023-01-19T21:06:51.734Z,20.83
2023-01-19T21:09:20.164Z,24.38
2023-01-19T21:11:48.701Z,21.05
2023-01-19T21:14:18.694Z,21.85
2023-01-19T21:16:47.124Z,25.10
2023-01-19T21:19:15.523Z,21.60
2023-01-19T21:21:43.863Z,24.35
2023-01-19T21:24:12.966Z,21.95
2023-01-19T21:26:41.871Z,24.92
2023-01-19T21:29:13.515Z,22.70
2023-01-19T21:31:43.601Z,20.30
2023-01-19T21:34:12.150Z,23.63
2023-01-19T21:36:40.887Z,24.85
2023-01-19T21:39:09.226Z,21.38
2023-01-19T21:41:39.844Z,24.10
2023-01-19T21:44:08.500Z,26.48
2023-01-19T21:46:37.016Z,26.20
2023-01-19T21:49:11.783Z,22.70
2023-01-19T21:51:40.605Z,24.55
2023-01-19T21:54:09.465Z,29.05
2023-01-19T21:56:39.303Z,28.83
2023-01-19T21:59:08.141Z,32.05
2023-01-19T22:01:37.142Z,27.00
2023-01-19T22:04:07.581Z,23.92
2023-01-19T22:06:36.117Z,23.63
2023-01-19T22:09:05.068Z,25.55
2023-01-19T22:11:33.469Z,33.10
2023-01-19T22:14:02.133Z,29.17
2023-01-19T22:16:31.098Z,30.77
2023-01-19T22:19:02.232Z,27.00
2023-01-19T22:21:35.769Z,27.10
2023-01-19T22:24:06.202Z,30.02
2023-01-19T22:26:35.461Z,30.40
2023-01-19T22:29:05.747Z,26.80
2023-01-19T22:31:34.640Z,26.15
2023-01-19T22:34:03.498Z,29.70
2023-01-19T22:36:34.518Z,31.00
2023-01-19T22:39:06.313Z,27.58
2023-01-19T22:41:37.072Z,33.27
2023-01-19T22:44:08.807Z,32.50
2023-01-19T22:46:38.960Z,32.20
2023-01-19T22:49:09.240Z,28.95
2023-01-19T22:51:39.247Z,45.58
2023-01-19T22:54:07.897Z,30.75
2023-01-19T22:56:38.695Z,28.77
2023-01-19T22:59:08.115Z,34.83
2023-01-19T23:01:39.202Z,34.42
2023-01-19T23:04:10.146Z,31.20
2023-01-19T23:06:40.417Z,35.10
2023-01-19T23:09:13.127Z,32.53
2023-01-19T23:11:44.700Z,33.20
2023-01-19T23:14:17.644Z,34.47
2023-01-19T23:16:47.173Z,30.63
2023-01-19T23:19:17.304Z,34.97
2023-01-19T23:21:47.507Z,37.80
2023-01-19T23:24:16.024Z,31.02
2023-01-19T23:26:44.579Z,31.45
2023-01-19T23:29:14.620Z,36.47
2023-01-19T23:31:47.015Z,33.03
2023-01-19T23:34:18.303Z,34.70
2023-01-19T23:36:48.254Z,32.35
2023-01-19T23:39:19.940Z,31.75
2023-01-19T23:41:49.356Z,37.40
2023-01-19T23:44:18.724Z,37.47
2023-01-19T23:46:47.322Z,33.47
2023-01-19T23:49:15.785Z,33.05
2023-01-19T23:51:44.349Z,34.53
2023-01-19T23:54:14.329Z,33.30
2023-01-19T23:56:43.126Z,30.13
2023-01-19T23:59:15.085Z,33.83
